• Join FlightAware (Why Join?)
  • Login
  • US Flag 
04:56PM EDT


 

Airport Tracker/Info


-or-


 

Live Flight TrackerFlight Track Log ✈ SKW7380 ✈ 29-Apr-2013 ✈ KSLC - KCDC

Flight Track Log - Related Links

Times and Time Zones

All times are in EDT time to prevent confusion due to time zone crossing. See the SKW7380 flight status page for this flight to view local times or setup timezone preferences in your user account.

Time Position Orientation Groundspeed Altitude Reporting Facility
EDT Latitude Longitude Course Direction KTS MPH feet Rate Location/Type
07:09PM 40.8067 -112.0019 189° South 161 185 5,000  Level Salt Lake Center
07:09PM 40.8261 -112.0464 300° West 193 222 6,300 1,980 Climbing Salt Lake Center
07:10PM 40.8269 -112.1169 271° West 233 268 8,400 2,280 Climbing Salt Lake Center
07:11PM 40.8233 -112.1442 260° West 235 270 9,300 2,340 Climbing Salt Lake Center
07:11PM 40.8097 -112.2161 256° West 264 304 10,800 2,040 Climbing Salt Lake Center
07:12PM 40.6087 -112.2916 186° South  Level FlightAware Approximate
07:12PM 40.7983 -112.2369 234° Southwest 276 318 11,400  Level Salt Lake Center
07:13PM 40.5096 -112.3135 194° South  Level FlightAware Approximate
07:13PM 40.7242 -112.2794 203° Southwest 293 337 14,000  Level Salt Lake Center
07:14PM 40.4101 -112.3347 189° South  Level FlightAware Approximate
07:14PM 40.6386 -112.2997 190° South 310 357 15,800  Level Salt Lake Center
07:15PM 40.5250 -112.3189 187° South 341 392 18,000 1,800 Climbing Salt Lake Center
07:16PM 40.4303 -112.3406 190° South 347 399 19,600 1,500 Climbing Salt Lake Center
07:17PM 40.3317 -112.3644 190° South 359 413 21,100 1,500 Climbing Salt Lake Center
07:18PM 40.2453 -112.4242 208° Southwest 349 402 22,700 1,500 Climbing Salt Lake Center
07:19PM 40.1575 -112.4864 208° Southwest 358 412 24,200 1,260 Climbing Salt Lake Center
07:20PM 40.0678 -112.5483 208° Southwest 367 422 25,400 840 Climbing Salt Lake Center
07:21PM 39.9750 -112.6128 208° Southwest 381 438 26,000 240 Climbing Salt Lake Center
07:22PM 39.8778 -112.6808 208° Southwest 394 453 26,000  Level Salt Lake Center
07:23PM 39.7733 -112.7531 208° Southwest 417 480 26,000  Level Salt Lake Center
07:24PM 39.6572 -112.8231 205° Southwest 423 487 26,000  Level Salt Lake Center
07:25PM 39.5356 -112.8375 185° South 435 501 26,000  Level Salt Lake Center
07:26PM 39.4122 -112.8558 187° South 444 511 26,000  Level Salt Lake Center
07:27PM 39.2717 -112.8783 187° South 427 491 26,000  Level Salt Lake Center
07:28PM 39.1586 -112.8939 186° South 415 478 26,000  Level Salt Lake Center
07:29PM 39.0481 -112.9111 187° South 404 465 26,000  Level Salt Lake Center
07:30PM 38.9381 -112.9283 187° South 399 459 26,000  Level Salt Lake Center
07:31PM 38.8253 -112.9447 186° South 405 466 26,000  Level Salt Lake Center
07:32PM 38.7117 -112.9608 186° South 410 472 26,000  Level Salt Lake Center
07:33PM 38.5986 -112.9783 187° South 411 473 26,000 -420 Level Salt Lake Center
07:34PM 38.4833 -112.9939 186° South 414 476 25,200 -2,160 Descending Salt Lake Center
07:35PM 38.3497 -113.0139 187° South 407 468 21,600 -3,180 Descending Salt Lake Center
07:36PM 38.2444 -113.0244 185° South 388 447 18,700 -2,700 Descending Salt Lake Center
07:37PM 38.1422 -113.0353 185° South 379 436 16,100 -2,160 Descending Salt Lake Center
07:38PM 38.0458 -113.0442 184° South 366 421 14,300 -1,320 Descending Salt Lake Center
07:39PM 37.9631 -113.0514 184° South 331 381 13,500 -1,560 Descending Salt Lake Center
07:40PM 37.8992 -113.0089 152° Southeast 294 338 11,200 -1,980 Descending Salt Lake Center
07:41PM 37.8433 -112.9528 142° Southeast 276 318 9,500 -1,680 Descending Salt Lake Center